Time;durP1;ratioP1;P1;durP2;ratioP2;P2;SDS_P1;SDS_P2;PMS_P1;PMS_P2;Temp;Humidity;BMP_temperature;BMP_pressure;BME280_temperature;BME280_humidity;BME280_pressure;Samples;Min_cycle;Max_cycle;Signal;HPM_P1;HPM_P2
2022/04/04 00:01:20;;;;;;;5.38;3.28;;;3.10;91.20;;;;;;5031527;28;20078;-66
2022/04/04 00:03:46;;;;;;;5.40;3.28;;;3.10;91.40;;;;;;5038993;28;20567;-66
2022/04/04 00:06:11;;;;;;;4.78;3.28;;;3.10;91.50;;;;;;5043501;28;20477;-66
2022/04/04 00:08:37;;;;;;;5.55;3.15;;;3.00;91.70;;;;;;5050858;28;20040;-66
2022/04/04 00:11:03;;;;;;;6.40;3.42;;;3.10;91.90;;;;;;5036252;28;20017;-66
2022/04/04 00:13:29;;;;;;;5.63;3.70;;;3.10;91.90;;;;;;5046165;28;20484;-66
2022/04/04 00:15:55;;;;;;;5.30;3.20;;;3.00;92.00;;;;;;5039752;28;20080;-66
2022/04/04 00:18:20;;;;;;;6.05;3.55;;;3.00;92.20;;;;;;5036669;28;20033;-65
2022/04/04 00:20:46;;;;;;;6.22;3.90;;;3.00;92.40;;;;;;5036613;28;20033;-66
2022/04/04 00:23:12;;;;;;;4.95;3.63;;;3.00;92.60;;;;;;5043254;28;20036;-66
2022/04/04 00:25:45;;;;;;;5.70;3.90;;;3.00;92.70;;;;;;5035545;28;20071;-66
2022/04/04 00:28:12;;;;;;;6.13;4.20;;;3.00;92.90;;;;;;5059933;28;20017;-66
2022/04/04 00:30:38;;;;;;;3.80;2.95;;;3.00;92.90;;;;;;5034202;28;20021;-66
2022/04/04 00:33:05;;;;;;;4.93;3.47;;;2.90;92.90;;;;;;5042154;28;20021;-66
2022/04/04 00:35:31;;;;;;;4.93;3.70;;;2.90;93.00;;;;;;5039056;28;20079;-66
2022/04/04 00:38:01;;;;;;;6.00;3.70;;;2.90;93.10;;;;;;5036471;28;20030;-66
2022/04/04 00:40:27;;;;;;;7.00;3.47;;;3.00;93.20;;;;;;5045150;28;20021;-66
2022/04/04 00:42:53;;;;;;;7.22;3.80;;;2.90;93.20;;;;;;5045276;28;20036;-67
2022/04/04 00:45:19;;;;;;;7.65;3.83;;;2.90;93.30;;;;;;5040494;28;20549;-66
2022/04/04 00:47:44;;;;;;;6.28;3.92;;;2.90;93.40;;;;;;5036186;28;20293;-67
2022/04/04 00:50:10;;;;;;;7.65;4.18;;;2.90;93.50;;;;;;5044706;28;20026;-66
2022/04/04 00:52:36;;;;;;;5.40;4.00;;;2.80;93.60;;;;;;5041010;28;20048;-67
2022/04/04 00:55:02;;;;;;;7.13;4.30;;;2.80;93.70;;;;;;5035260;28;20018;-66
2022/04/04 00:57:29;;;;;;;6.38;4.30;;;2.90;93.80;;;;;;5047791;28;20059;-67
2022/04/04 00:59:55;;;;;;;5.68;4.00;;;2.80;93.80;;;;;;5045382;28;20017;-66
2022/04/04 01:02:21;;;;;;;6.45;4.50;;;2.80;93.80;;;;;;5042494;28;20017;-66
2022/04/04 01:04:46;;;;;;;7.10;4.25;;;2.80;93.80;;;;;;5040090;28;20036;-67
2022/04/04 01:07:12;;;;;;;6.03;4.25;;;2.80;93.90;;;;;;5039295;28;20022;-67
2022/04/04 01:09:37;;;;;;;7.88;4.95;;;2.80;93.90;;;;;;5049174;28;20076;-67
2022/04/04 01:12:11;;;;;;;6.45;4.13;;;2.70;93.90;;;;;;5039417;28;20026;-67
2022/04/04 01:14:38;;;;;;;6.10;4.32;;;2.70;93.90;;;;;;5033209;28;20438;-66
2022/04/04 01:17:05;;;;;;;9.57;4.35;;;2.70;93.90;;;;;;5035546;28;20025;-66
2022/04/04 01:19:31;;;;;;;5.65;4.38;;;2.70;93.90;;;;;;5033594;28;20045;-67
2022/04/04 01:21:57;;;;;;;6.60;4.38;;;2.70;93.80;;;;;;5040218;28;20044;-67
2022/04/04 01:24:24;;;;;;;6.32;4.43;;;2.80;93.80;;;;;;5032259;28;20104;-66
2022/04/04 01:26:51;;;;;;;6.00;4.38;;;2.80;93.70;;;;;;5037467;28;20036;-66
2022/04/04 01:29:16;;;;;;;9.48;5.22;;;2.80;93.70;;;;;;5035499;28;20028;-66
2022/04/04 01:31:42;;;;;;;9.27;5.40;;;2.80;93.60;;;;;;5035379;28;20025;-66
2022/04/04 01:34:08;;;;;;;7.63;5.20;;;2.80;93.60;;;;;;5035144;28;20109;-66
2022/04/04 01:36:34;;;;;;;7.82;5.07;;;2.80;93.50;;;;;;5036660;28;20025;-67
2022/04/04 01:38:59;;;;;;;9.05;5.82;;;2.80;93.50;;;;;;5034308;28;20029;-67
2022/04/04 01:41:25;;;;;;;8.35;5.65;;;2.80;93.40;;;;;;5040692;28;20576;-66
2022/04/04 01:43:51;;;;;;;9.50;5.53;;;2.80;93.30;;;;;;5035179;28;20030;-66
2022/04/04 01:46:29;;;;;;;5.47;4.63;;;2.80;93.20;;;;;;5030997;28;20107;-66
2022/04/04 01:48:56;;;;;;;9.25;6.35;;;2.80;93.10;;;;;;5035232;28;20104;-66
2022/04/04 01:51:22;;;;;;;9.90;5.80;;;2.80;93.00;;;;;;5034691;28;20026;-66
2022/04/04 01:53:48;;;;;;;9.02;6.63;;;2.90;93.20;;;;;;5036696;28;20025;-66
2022/04/04 01:56:15;;;;;;;9.43;6.18;;;2.90;92.80;;;;;;5039729;28;20048;-66
2022/04/04 01:58:41;;;;;;;7.82;6.07;;;2.90;92.70;;;;;;5031875;28;20104;-66
2022/04/04 02:01:18;;;;;;;8.10;6.05;;;2.90;92.70;;;;;;5042064;28;20508;-67
2022/04/04 02:03:48;;;;;;;10.68;6.80;;;2.90;92.60;;;;;;5053152;28;20025;-66
2022/04/04 02:06:14;;;;;;;;;;;2.90;92.50;;;;;;5046761;28;20030;-66
2022/04/04 02:08:42;;;;;;;10.63;7.22;;;2.90;92.50;;;;;;5036358;28;19920;-66
2022/04/04 02:11:07;;;;;;;9.38;7.30;;;2.90;92.60;;;;;;5033182;28;20009;-66
2022/04/04 02:13:33;;;;;;;8.90;6.85;;;2.90;92.50;;;;;;5036697;28;20031;-66
2022/04/04 02:16:01;;;;;;;9.57;7.15;;;2.90;92.40;;;;;;5030525;28;20469;-67
2022/04/04 02:18:28;;;;;;;11.35;7.43;;;2.90;92.30;;;;;;5034321;28;20056;-65
2022/04/04 02:20:54;;;;;;;8.48;6.97;;;2.90;92.20;;;;;;5033227;28;20025;-66
2022/04/04 02:23:20;;;;;;;12.18;7.82;;;2.90;92.20;;;;;;5035966;28;20501;-67
2022/04/04 02:25:49;;;;;;;9.32;7.10;;;2.90;92.20;;;;;;5031741;28;20029;-66
2022/04/04 02:28:15;;;;;;;12.43;7.45;;;2.90;92.10;;;;;;5040024;28;20013;-66
2022/04/04 02:30:42;;;;;;;11.68;7.78;;;2.90;92.10;;;;;;5034341;28;20033;-65
2022/04/04 02:33:08;;;;;;;11.18;8.10;;;2.90;92.10;;;;;;5031341;28;20029;-66
2022/04/04 02:35:34;;;;;;;10.05;7.60;;;2.90;92.10;;;;;;5031535;28;20543;-65
2022/04/04 02:38:00;;;;;;;10.82;7.60;;;2.90;92.00;;;;;;5040850;28;20679;-67
2022/04/04 02:40:26;;;;;;;12.73;6.88;;;2.90;92.00;;;;;;5033980;28;20033;-66
2022/04/04 02:42:52;;;;;;;12.15;7.47;;;2.90;92.10;;;;;;5031170;28;22393;-66
2022/04/04 02:45:18;;;;;;;10.00;7.43;;;2.90;92.00;;;;;;5036822;28;20032;-66
2022/04/04 02:47:44;;;;;;;12.27;7.85;;;3.00;92.00;;;;;;5031230;28;20468;-66
2022/04/04 02:50:11;;;;;;;12.45;7.25;;;3.00;92.00;;;;;;5036485;28;20028;-66
2022/04/04 02:52:37;;;;;;;11.20;7.20;;;3.00;91.90;;;;;;5030944;28;20063;-67
2022/04/04 02:56:28;;;;;;;10.15;7.25;;;3.00;91.90;;;;;;5032473;28;20028;-67
2022/04/04 02:57:49;;;;;;;10.50;6.53;;;3.00;91.80;;;;;;5035834;28;20032;-67
2022/04/04 03:00:19;;;;;;;11.88;7.18;;;3.00;91.80;;;;;;5033436;28;20377;-66
2022/04/04 03:02:45;;;;;;;10.10;6.50;;;3.10;91.80;;;;;;5041696;28;20018;-67
2022/04/04 03:05:11;;;;;;;9.18;6.55;;;3.10;91.70;;;;;;5033383;28;20028;-67
2022/04/04 03:07:36;;;;;;;9.93;6.63;;;3.10;91.70;;;;;;5035016;28;20461;-66
2022/04/04 03:10:03;;;;;;;11.38;7.55;;;3.10;91.70;;;;;;5034574;28;20065;-67
2022/04/04 03:12:29;;;;;;;11.07;7.22;;;3.10;92.00;;;;;;5054100;28;20013;-67
2022/04/04 03:14:55;;;;;;;10.10;6.82;;;3.10;91.70;;;;;;5029428;28;20025;-67
2022/04/04 03:17:20;;;;;;;10.85;7.78;;;3.10;91.70;;;;;;5033626;28;20026;-66
2022/04/04 03:19:47;;;;;;;9.57;6.78;;;3.10;91.70;;;;;;5040066;28;20041;-66
2022/04/04 03:22:13;;;;;;;13.23;6.88;;;3.20;91.70;;;;;;5042246;28;20140;-66
2022/04/04 03:24:38;;;;;;;9.05;6.45;;;3.20;91.80;;;;;;5038049;28;20025;-66
2022/04/04 03:27:04;;;;;;;10.60;7.25;;;3.20;91.80;;;;;;5034201;28;20031;-66
2022/04/04 03:29:29;;;;;;;9.38;7.07;;;3.20;91.70;;;;;;5039142;28;20090;-66
2022/04/04 03:31:55;;;;;;;9.45;6.90;;;3.20;91.80;;;;;;5045762;28;20026;-67
2022/04/04 03:34:22;;;;;;;11.90;7.10;;;3.20;91.80;;;;;;5042954;28;20029;-66
2022/04/04 03:36:47;;;;;;;9.25;6.95;;;3.20;91.90;;;;;;5035985;28;20424;-66
2022/04/04 03:39:16;;;;;;;8.98;6.20;;;3.20;91.90;;;;;;5042926;28;20524;-67
2022/04/04 03:41:43;;;;;;;11.13;6.93;;;3.20;91.90;;;;;;5033147;28;20113;-66
2022/04/04 03:44:09;;;;;;;10.77;6.70;;;3.30;91.90;;;;;;5035836;28;20022;-67
2022/04/04 03:46:35;;;;;;;8.85;6.10;;;3.30;91.90;;;;;;5033140;28;20024;-66
2022/04/04 03:49:00;;;;;;;11.50;6.57;;;3.30;91.80;;;;;;5031142;28;20609;-67
2022/04/04 03:51:26;;;;;;;9.80;6.70;;;3.30;91.80;;;;;;5037777;28;20029;-66
2022/04/04 03:53:51;;;;;;;10.43;6.43;;;3.30;91.80;;;;;;5034794;28;20044;-66
2022/04/04 03:56:17;;;;;;;7.57;5.75;;;3.30;91.80;;;;;;5032352;28;20030;-66
2022/04/04 03:58:43;;;;;;;9.45;5.82;;;3.40;91.80;;;;;;5032808;28;20461;-66
2022/04/04 04:01:09;;;;;;;11.88;6.85;;;3.40;91.80;;;;;;5035218;28;20754;-66
2022/04/04 04:03:36;;;;;;;11.57;6.20;;;3.40;91.80;;;;;;5030048;28;20029;-67
2022/04/04 04:06:11;;;;;;;11.10;6.75;;;3.40;91.80;;;;;;5032656;28;20022;-66
2022/04/04 04:08:38;;;;;;;9.50;5.80;;;3.40;91.80;;;;;;5034317;28;20032;-66
2022/04/04 04:11:03;;;;;;;9.43;6.30;;;3.40;91.80;;;;;;5032159;28;20018;-67
2022/04/04 04:13:29;;;;;;;8.52;6.20;;;3.40;91.90;;;;;;5038742;28;20032;-66
2022/04/04 04:15:54;;;;;;;9.40;6.70;;;3.40;92.00;;;;;;5035552;28;20032;-66
2022/04/04 04:18:20;;;;;;;14.35;6.60;;;3.40;92.10;;;;;;5035361;28;20493;-65
2022/04/04 04:20:45;;;;;;;10.82;6.45;;;3.40;92.10;;;;;;5032770;28;20037;-66
2022/04/04 04:23:12;;;;;;;10.77;6.40;;;3.40;92.10;;;;;;5032851;28;20057;-66
2022/04/04 04:25:37;;;;;;;10.45;6.75;;;3.50;92.00;;;;;;5042608;28;20064;-65
2022/04/04 04:28:05;;;;;;;8.75;6.50;;;3.50;91.90;;;;;;5032709;28;20018;-67
2022/04/04 04:30:32;;;;;;;8.98;5.82;;;3.50;91.90;;;;;;5032720;28;20013;-66
2022/04/04 04:32:57;;;;;;;9.20;6.50;;;3.60;92.00;;;;;;5032565;28;20017;-66
2022/04/04 04:35:23;;;;;;;10.68;6.60;;;3.60;91.90;;;;;;5029972;28;20048;-66
2022/04/04 04:37:53;;;;;;;12.00;6.03;;;3.60;91.90;;;;;;5032517;28;20405;-66
2022/04/04 04:40:19;;;;;;;9.27;6.30;;;3.60;91.90;;;;;;5034105;28;20021;-66
2022/04/04 04:42:46;;;;;;;10.35;6.80;;;3.60;91.90;;;;;;5033826;28;20037;-66
2022/04/04 04:45:12;;;;;;;11.00;6.97;;;3.70;91.90;;;;;;5033066;28;20448;-66
2022/04/04 04:47:38;;;;;;;9.70;5.88;;;3.70;91.90;;;;;;5030315;28;20385;-66
2022/04/04 04:50:05;;;;;;;7.75;5.97;;;3.70;91.80;;;;;;5028841;28;20028;-67
2022/04/04 04:52:32;;;;;;;11.70;6.13;;;3.80;91.80;;;;;;5033999;28;20014;-66
2022/04/04 04:54:58;;;;;;;10.48;6.55;;;3.80;91.70;;;;;;5029164;28;20052;-66
2022/04/04 04:57:23;;;;;;;12.25;7.28;;;3.80;91.70;;;;;;5032396;28;20064;-67
2022/04/04 04:59:49;;;;;;;12.43;6.70;;;3.90;91.70;;;;;;5033919;28;20100;-66
2022/04/04 05:02:15;;;;;;;10.77;7.30;;;3.90;91.70;;;;;;5037193;28;20567;-66
2022/04/04 05:04:40;;;;;;;11.63;7.50;;;3.90;91.60;;;;;;5040730;28;20063;-66
2022/04/04 05:07:08;;;;;;;10.90;7.30;;;4.00;91.60;;;;;;5042262;28;20053;-66
2022/04/04 05:09:35;;;;;;;8.73;6.55;;;4.00;91.70;;;;;;5036365;28;20021;-66
2022/04/04 05:12:00;;;;;;;8.82;6.72;;;4.00;91.70;;;;;;5035043;28;20064;-66
2022/04/04 05:14:26;;;;;;;9.00;6.90;;;4.10;91.60;;;;;;5029502;28;20068;-66
2022/04/04 05:16:53;;;;;;;9.40;6.53;;;4.10;91.50;;;;;;5033540;28;20041;-66
2022/04/04 05:19:22;;;;;;;12.13;7.35;;;4.20;91.40;;;;;;5033293;28;20111;-66
2022/04/04 05:21:48;;;;;;;13.10;7.30;;;4.20;91.40;;;;;;5038964;28;20113;-67
2022/04/04 05:24:15;;;;;;;11.32;6.57;;;4.20;91.40;;;;;;5032188;28;20033;-66
2022/04/04 05:26:41;;;;;;;13.85;7.43;;;4.30;91.40;;;;;;5034216;28;20083;-66
2022/04/04 05:29:07;;;;;;;8.05;5.95;;;4.30;91.30;;;;;;5034297;28;20409;-66
2022/04/04 05:31:34;;;;;;;12.98;6.82;;;4.40;91.20;;;;;;5032927;28;20021;-67
2022/04/04 05:34:01;;;;;;;10.43;6.80;;;4.40;91.10;;;;;;5034283;28;20037;-66
2022/04/04 05:36:27;;;;;;;11.50;7.13;;;4.40;91.00;;;;;;5033293;28;20389;-66
2022/04/04 05:38:52;;;;;;;12.18;7.80;;;4.50;91.00;;;;;;5034297;28;20025;-66
2022/04/04 05:41:18;;;;;;;12.27;8.18;;;4.50;90.90;;;;;;5034167;28;20049;-66
2022/04/04 05:43:44;;;;;;;11.85;7.85;;;4.50;90.80;;;;;;5033954;28;20032;-67
2022/04/04 05:46:12;;;;;;;10.93;7.10;;;4.50;90.80;;;;;;5034093;28;20378;-67
2022/04/04 05:48:38;;;;;;;19.13;8.40;;;4.60;90.80;;;;;;5034303;28;20433;-66
2022/04/04 05:51:04;;;;;;;11.38;6.95;;;4.60;90.70;;;;;;5033904;28;20052;-67
2022/04/04 05:53:29;;;;;;;10.23;6.82;;;4.60;90.60;;;;;;5032784;28;20030;-66
2022/04/04 05:55:55;;;;;;;11.75;7.45;;;4.70;90.50;;;;;;5033928;28;20052;-66
2022/04/04 05:58:20;;;;;;;10.95;6.63;;;4.70;90.30;;;;;;5033673;28;20647;-67
2022/04/04 06:00:46;;;;;;;8.93;6.53;;;4.70;90.20;;;;;;5032413;28;20469;-66
2022/04/04 06:03:12;;;;;;;12.15;7.18;;;4.80;90.20;;;;;;5033384;28;20183;-66
2022/04/04 06:05:38;;;;;;;9.77;6.78;;;4.80;90.20;;;;;;5033291;28;20036;-66
2022/04/04 06:08:03;;;;;;;10.57;6.80;;;4.80;90.10;;;;;;5033510;28;20100;-66
2022/04/04 06:10:29;;;;;;;11.35;6.63;;;4.90;90.00;;;;;;5033474;28;20032;-67
2022/04/04 06:12:54;;;;;;;13.60;7.78;;;4.90;90.00;;;;;;5048145;28;20025;-67
2022/04/04 06:15:20;;;;;;;12.48;7.00;;;4.90;89.80;;;;;;5044375;28;20029;-67
2022/04/04 06:17:47;;;;;;;9.93;7.22;;;5.00;89.50;;;;;;5036145;28;20076;-67
2022/04/04 06:20:13;;;;;;;10.65;6.47;;;5.00;89.00;;;;;;5059321;28;20409;-67
2022/04/04 06:22:40;;;;;;;9.73;7.07;;;5.10;88.90;;;;;;5044462;28;20021;-67
2022/04/04 06:25:08;;;;;;;11.05;7.22;;;5.20;88.70;;;;;;5048107;28;20432;-67
2022/04/04 06:27:35;;;;;;;11.25;7.75;;;5.20;88.40;;;;;;5047225;28;20025;-67
2022/04/04 06:30:01;;;;;;;11.20;6.82;;;5.30;87.80;;;;;;5049157;28;20441;-67
2022/04/04 06:32:27;;;;;;;8.30;6.28;;;5.40;87.80;;;;;;5047369;28;20031;-67
2022/04/04 06:34:52;;;;;;;11.65;7.30;;;5.40;87.40;;;;;;5050486;28;20104;-67
2022/04/04 06:37:18;;;;;;;10.80;7.03;;;5.40;87.20;;;;;;5050121;28;20036;-67
2022/04/04 06:39:44;;;;;;;10.07;7.07;;;5.50;86.80;;;;;;5051811;28;20021;-66
2022/04/04 06:42:09;;;;;;;12.32;6.53;;;5.50;86.70;;;;;;5052800;28;20043;-67
2022/04/04 06:44:35;;;;;;;10.45;7.30;;;5.50;86.00;;;;;;5052793;28;20063;-66
2022/04/04 06:47:00;;;;;;;8.65;6.20;;;5.60;85.50;;;;;;5051552;28;20025;-67
2022/04/04 06:49:26;;;;;;;11.10;6.90;;;5.60;85.30;;;;;;5052830;28;20025;-66
2022/04/04 06:51:52;;;;;;;8.98;6.00;;;5.70;84.60;;;;;;5052745;28;20021;-67
2022/04/04 06:54:19;;;;;;;8.57;6.80;;;5.70;84.30;;;;;;5051564;28;20017;-67
2022/04/04 06:56:46;;;;;;;9.13;6.65;;;5.80;83.80;;;;;;5052336;28;20036;-67
2022/04/04 06:59:13;;;;;;;6.78;5.47;;;5.90;83.60;;;;;;5065980;28;20029;-66
2022/04/04 07:01:39;;;;;;;9.13;5.85;;;5.90;83.80;;;;;;5065911;28;20032;-65
2022/04/04 07:04:04;;;;;;;8.95;6.43;;;5.90;83.90;;;;;;5052255;28;20029;-66
2022/04/04 07:06:30;;;;;;;11.23;6.38;;;5.90;83.70;;;;;;5052475;28;20060;-66
2022/04/04 07:08:56;;;;;;;9.73;6.03;;;5.90;83.10;;;;;;5050944;28;20102;-66
2022/04/04 07:11:22;;;;;;;9.25;6.50;;;6.00;82.90;;;;;;5051948;28;20021;-66
2022/04/04 07:13:49;;;;;;;9.02;6.20;;;6.00;84.00;;;;;;5052459;28;20163;-64
2022/04/04 07:16:15;;;;;;;8.07;5.95;;;6.00;83.30;;;;;;5052361;28;20040;-66
2022/04/04 07:18:41;;;;;;;8.55;5.88;;;6.10;83.30;;;;;;5052048;28;20130;-65
2022/04/04 07:21:06;;;;;;;10.85;5.90;;;6.10;83.10;;;;;;5052122;28;20069;-66
2022/04/04 07:23:32;;;;;;;8.82;6.05;;;6.10;83.20;;;;;;5051605;28;20107;-66
2022/04/04 07:25:58;;;;;;;11.23;7.28;;;6.20;83.10;;;;;;5051934;28;20499;-66
2022/04/04 07:28:23;;;;;;;9.25;6.18;;;6.20;83.30;;;;;;5050810;28;20029;-67
2022/04/04 07:30:50;;;;;;;8.80;6.05;;;6.30;83.40;;;;;;5051748;28;20020;-67
2022/04/04 07:33:17;;;;;;;10.50;6.25;;;6.30;83.60;;;;;;5050548;28;20432;-67
2022/04/04 07:35:42;;;;;;;10.02;5.60;;;6.40;83.60;;;;;;5051349;28;20028;-66
2022/04/04 07:38:09;;;;;;;10.55;6.68;;;6.40;83.60;;;;;;5051793;28;20045;-66
2022/04/04 07:40:35;;;;;;;9.07;6.18;;;6.50;83.90;;;;;;5051568;28;20082;-66
2022/04/04 07:43:01;;;;;;;10.13;6.32;;;6.50;83.50;;;;;;5049977;28;20055;-66
2022/04/04 07:45:29;;;;;;;10.40;7.53;;;6.60;83.80;;;;;;5049897;28;20068;-67
2022/04/04 07:47:55;;;;;;;12.73;7.30;;;6.60;84.10;;;;;;5047730;28;20055;-67
2022/04/04 07:50:21;;;;;;;9.73;6.25;;;6.60;84.20;;;;;;5049127;28;20025;-66
2022/04/04 07:52:47;;;;;;;8.60;6.05;;;6.60;84.50;;;;;;5045962;28;20071;-67
2022/04/04 07:55:13;;;;;;;8.13;5.80;;;6.70;84.60;;;;;;5051157;28;20499;-67
2022/04/04 07:57:40;;;;;;;9.45;6.65;;;6.70;84.80;;;;;;5047804;28;20110;-67
2022/04/04 08:00:07;;;;;;;10.85;6.93;;;6.70;85.10;;;;;;5044223;28;20020;-66
2022/04/04 08:02:33;;;;;;;9.68;7.22;;;6.70;85.20;;;;;;5050024;28;20021;-66
2022/04/04 08:04:59;;;;;;;9.52;7.30;;;6.70;85.50;;;;;;5047322;28;20021;-67
2022/04/04 08:07:24;;;;;;;10.63;7.47;;;6.70;85.70;;;;;;5048626;28;20544;-67
2022/04/04 08:09:51;;;;;;;9.07;6.82;;;6.70;85.70;;;;;;5053561;28;20040;-66
2022/04/04 08:12:16;;;;;;;10.50;7.05;;;6.70;85.70;;;;;;5070613;28;20514;-67
2022/04/04 08:14:42;;;;;;;10.20;7.38;;;6.70;86.10;;;;;;5049366;28;20037;-66
2022/04/04 08:17:08;;;;;;;12.32;6.88;;;6.70;86.80;;;;;;5046517;28;20064;-67
2022/04/04 08:19:35;;;;;;;10.13;7.60;;;6.70;88.20;;;;;;5055827;28;20056;-66
2022/04/04 08:22:01;;;;;;;16.02;8.60;;;6.60;88.00;;;;;;5061199;28;20088;-67
2022/04/04 08:24:26;;;;;;;11.25;7.57;;;6.60;88.50;;;;;;5063912;28;20518;-67
2022/04/04 08:26:52;;;;;;;12.82;8.50;;;6.60;89.00;;;;;;5053488;28;20029;-66
2022/04/04 08:29:17;;;;;;;13.65;8.07;;;6.60;88.70;;;;;;5038013;28;20078;-66
2022/04/04 08:31:43;;;;;;;12.80;8.38;;;6.60;89.00;;;;;;5053006;28;20536;-66
2022/04/04 08:34:08;;;;;;;8.75;7.57;;;6.60;88.90;;;;;;5047611;28;20039;-66
2022/04/04 08:36:34;;;;;;;11.30;7.57;;;6.60;88.90;;;;;;5050430;28;20021;-66
2022/04/04 08:39:00;;;;;;;10.52;7.85;;;6.70;88.50;;;;;;5054428;28;20057;-66
2022/04/04 08:41:29;;;;;;;11.75;8.32;;;6.70;88.40;;;;;;5057637;28;20028;-66
2022/04/04 08:43:59;;;;;;;11.52;7.88;;;6.80;87.90;;;;;;5067250;28;20052;-66
2022/04/04 08:46:25;;;;;;;15.00;8.75;;;6.90;87.10;;;;;;5048765;28;20025;-66
2022/04/04 08:48:52;;;;;;;11.80;8.43;;;6.90;86.00;;;;;;5063101;28;20074;-66
2022/04/04 08:51:18;;;;;;;10.20;8.23;;;6.90;85.80;;;;;;5057617;28;20070;-66
2022/04/04 08:53:43;;;;;;;12.15;7.50;;;7.00;86.40;;;;;;5064522;28;20435;-66
2022/04/04 08:56:11;;;;;;;13.18;7.78;;;7.00;85.40;;;;;;5056615;28;20021;-66
2022/04/04 08:58:37;;;;;;;13.30;8.60;;;7.10;85.30;;;;;;5054350;28;20480;-66
2022/04/04 09:01:03;;;;;;;12.60;7.93;;;7.10;85.20;;;;;;5054287;28;20044;-66
2022/04/04 09:03:32;;;;;;;13.18;8.55;;;7.10;85.00;;;;;;5054556;28;20032;-66
2022/04/04 09:05:59;;;;;;;11.40;8.48;;;7.10;84.90;;;;;;5054308;28;20048;-66
2022/04/04 09:08:28;;;;;;;11.48;7.90;;;7.10;84.80;;;;;;5039618;28;20032;-66
2022/04/04 09:10:56;;;;;;;11.45;7.55;;;7.10;85.10;;;;;;5048194;28;20020;-66
2022/04/04 09:13:23;;;;;;;13.00;7.78;;;7.10;85.60;;;;;;5063000;28;20025;-68
2022/04/04 09:15:53;;;;;;;11.13;8.75;;;7.20;86.10;;;;;;5058570;28;20048;-67
2022/04/04 09:18:24;;;;;;;13.63;8.43;;;7.20;87.10;;;;;;5069747;28;20028;-66
2022/04/04 09:20:51;;;;;;;9.80;8.23;;;7.10;88.00;;;;;;5052564;28;20588;-67
2022/04/04 09:23:18;;;;;;;16.75;8.98;;;7.10;89.20;;;;;;5044821;28;20405;-67
2022/04/04 09:25:44;;;;;;;13.75;9.25;;;7.00;89.60;;;;;;5042770;28;20020;-67
2022/04/04 09:28:17;;;;;;;13.70;9.45;;;7.00;90.00;;;;;;5039162;28;20492;-66
2022/04/04 09:30:44;;;;;;;12.45;9.02;;;6.90;90.20;;;;;;5038839;28;20029;-67
2022/04/04 09:33:13;;;;;;;12.10;9.23;;;6.90;90.60;;;;;;5053618;28;20025;-67
2022/04/04 09:35:46;;;;;;;14.25;9.20;;;6.80;90.80;;;;;;5073030;28;20016;-67
2022/04/04 09:38:14;;;;;;;14.02;8.50;;;6.80;91.00;;;;;;5071552;28;20437;-67
2022/04/04 09:40:39;;;;;;;14.73;9.07;;;6.70;91.60;;;;;;5056932;28;20502;-67
2022/04/04 09:43:06;;;;;;;14.52;9.80;;;6.70;92.10;;;;;;5065829;28;20025;-67
2022/04/04 09:45:31;;;;;;;15.65;9.57;;;6.60;92.40;;;;;;5064325;28;20118;-65
2022/04/04 09:48:01;;;;;;;13.60;9.95;;;6.60;93.00;;;;;;5057763;28;20402;-65
2022/04/04 09:50:47;;;;;;;13.80;10.45;;;6.60;93.80;;;;;;5061042;28;20036;-66
2022/04/04 09:53:23;;;;;;;14.10;9.90;;;6.50;94.10;;;;;;5056478;28;20040;-66
2022/04/04 09:55:52;;;;;;;19.30;10.73;;;6.50;94.50;;;;;;5058424;28;20029;-66
2022/04/04 09:58:21;;;;;;;13.40;10.48;;;6.40;94.70;;;;;;5065231;28;20033;-64
2022/04/04 10:00:49;;;;;;;14.33;11.40;;;6.40;95.00;;;;;;5068003;28;20532;-66
2022/04/04 10:03:16;;;;;;;14.07;11.63;;;6.40;95.20;;;;;;5044541;28;20712;-66
2022/04/04 10:05:44;;;;;;;14.43;11.95;;;6.40;95.40;;;;;;5060449;28;20043;-65
2022/04/04 10:08:14;;;;;;;14.70;11.57;;;6.30;95.80;;;;;;5069193;28;20527;-67
2022/04/04 10:10:40;;;;;;;;;;;6.30;96.20;;;;;;5057440;28;20419;-66
2022/04/04 10:13:06;;;;;;;20.48;12.32;;;6.30;96.40;;;;;;5064915;28;19928;-67
2022/04/04 10:15:35;;;;;;;15.80;12.07;;;6.20;96.70;;;;;;5059198;28;20383;-67
2022/04/04 10:18:01;;;;;;;16.48;13.77;;;6.20;96.90;;;;;;5050702;28;20025;-67
2022/04/04 10:20:26;;;;;;;17.52;13.00;;;6.20;97.10;;;;;;5054702;28;20132;-67
2022/04/04 10:22:54;;;;;;;21.92;13.82;;;6.20;97.30;;;;;;5067394;28;20021;-66
2022/04/04 10:25:25;;;;;;;14.48;12.25;;;6.20;97.30;;;;;;5048988;28;20395;-67
2022/04/04 10:27:51;;;;;;;15.13;12.23;;;6.30;97.40;;;;;;5051670;28;20480;-67
2022/04/04 10:30:17;;;;;;;18.48;11.63;;;6.30;97.50;;;;;;5051504;28;20036;-67
2022/04/04 10:32:50;;;;;;;17.20;12.32;;;6.30;97.50;;;;;;5067991;28;20025;-66
2022/04/04 10:35:22;;;;;;;18.05;12.05;;;6.30;97.70;;;;;;5061296;28;20050;-67
2022/04/04 10:37:49;;;;;;;17.33;11.48;;;6.30;97.80;;;;;;5058758;28;20029;-67
2022/04/04 10:40:36;;;;;;;14.75;11.75;;;6.30;98.00;;;;;;5069204;28;20103;-67
2022/04/04 10:43:14;;;;;;;15.73;10.90;;;6.30;98.20;;;;;;5059313;28;20442;-67
2022/04/04 10:46:00;;;;;;;14.88;11.02;;;6.30;98.30;;;;;;5060055;28;20021;-67
2022/04/04 10:48:38;;;;;;;13.68;10.70;;;6.40;98.40;;;;;;5058146;28;20380;-66
2022/04/04 10:51:18;;;;;;;17.42;11.23;;;6.40;98.70;;;;;;5049456;28;20363;-67
2022/04/04 10:53:49;;;;;;;14.52;11.85;;;6.40;98.80;;;;;;5050625;28;20104;-67
2022/04/04 10:56:19;;;;;;;12.73;10.52;;;6.40;99.00;;;;;;5050127;28;20104;-67
2022/04/04 10:58:45;;;;;;;12.30;10.57;;;6.40;99.20;;;;;;5049053;28;20028;-67
2022/04/04 11:01:15;;;;;;;15.02;11.45;;;6.40;99.20;;;;;;5047364;28;20029;-67
2022/04/04 11:03:48;;;;;;;18.48;12.25;;;6.30;99.50;;;;;;5051549;28;20112;-66
2022/04/04 11:09:16;;;;;;;14.60;11.60;;;6.30;99.90;;;;;;5049310;28;20845;-66
2022/04/04 11:11:49;;;;;;;16.15;12.02;;;6.30;99.90;;;;;;5048437;28;20025;-65
2022/04/04 11:14:17;;;;;;;15.38;11.75;;;6.30;99.90;;;;;;5047265;28;20396;-66
2022/04/04 11:17:23;;;;;;;14.27;11.77;;;6.30;99.90;;;;;;5050562;28;20029;-66
2022/04/04 11:19:53;;;;;;;14.82;11.52;;;6.30;99.90;;;;;;5043493;28;20464;-66
2022/04/04 11:22:26;;;;;;;17.95;11.82;;;6.30;99.90;;;;;;5041982;28;20112;-67
2022/04/04 11:25:03;;;;;;;15.13;12.10;;;6.30;99.90;;;;;;5040845;28;20052;-67
2022/04/04 11:27:33;;;;;;;16.20;12.32;;;6.30;99.90;;;;;;5049839;28;20046;-67
2022/04/04 11:30:13;;;;;;;13.15;11.73;;;6.30;99.90;;;;;;5062858;28;20100;-66
2022/04/04 11:32:42;;;;;;;13.32;11.05;;;6.30;99.90;;;;;;5065653;28;20064;-66
2022/04/04 11:35:20;;;;;;;13.48;10.63;;;6.30;99.90;;;;;;5053661;28;20033;-68
2022/04/04 11:37:48;;;;;;;13.32;11.70;;;6.40;99.90;;;;;;5070244;28;20108;-67
2022/04/04 11:40:23;;;;;;;13.70;10.80;;;6.40;99.90;;;;;;5060444;28;20057;-67
2022/04/04 11:42:51;;;;;;;12.25;10.20;;;6.40;99.90;;;;;;5050678;28;20071;-67
2022/04/04 11:45:19;;;;;;;14.07;11.77;;;6.40;99.90;;;;;;5045252;28;20075;-67
2022/04/04 11:47:52;;;;;;;12.45;11.13;;;6.40;99.90;;;;;;5045430;28;20025;-67
2022/04/04 11:50:17;;;;;;;13.60;10.98;;;6.40;99.90;;;;;;5037958;28;20497;-67
2022/04/04 11:52:48;;;;;;;13.85;10.52;;;6.40;99.90;;;;;;5060222;28;20044;-67
2022/04/04 11:55:18;;;;;;;10.63;9.35;;;6.50;99.90;;;;;;5054928;28;20029;-67
2022/04/04 11:57:49;;;;;;;13.52;9.30;;;6.50;99.90;;;;;;5064545;28;20029;-67
2022/04/04 12:00:20;;;;;;;11.40;9.68;;;6.50;99.90;;;;;;5061635;28;20024;-66
2022/04/04 12:02:47;;;;;;;9.88;8.55;;;6.50;99.90;;;;;;5040061;28;20032;-66
2022/04/04 12:05:14;;;;;;;12.57;9.68;;;6.50;99.90;;;;;;5052410;28;20089;-66
2022/04/04 12:07:41;;;;;;;12.23;9.35;;;6.50;99.90;;;;;;5057563;28;20016;-66
2022/04/04 12:10:08;;;;;;;10.38;9.07;;;6.50;99.90;;;;;;5049952;28;20575;-66
2022/04/04 12:12:33;;;;;;;10.32;9.20;;;6.50;99.90;;;;;;5051971;28;20029;-66
2022/04/04 12:14:59;;;;;;;13.40;11.20;;;6.50;99.90;;;;;;5049967;28;20083;-67
2022/04/04 12:17:25;;;;;;;13.25;9.88;;;6.50;99.90;;;;;;5053609;28;20040;-66
2022/04/04 12:19:52;;;;;;;9.88;8.60;;;6.50;99.90;;;;;;5049529;28;20041;-67
2022/04/04 12:25:10;;;;;;;10.77;9.52;;;6.50;99.90;;;;;;5047654;28;20112;-68
2022/04/04 12:27:54;;;;;;;10.60;9.50;;;6.40;99.90;;;;;;5052140;28;20021;-68
2022/04/04 12:30:29;;;;;;;10.10;9.10;;;6.50;99.90;;;;;;5044388;28;20021;-68
2022/04/04 12:33:05;;;;;;;10.77;9.30;;;6.40;99.90;;;;;;5053971;28;20025;-68
2022/04/04 12:35:30;;;;;;;10.75;9.65;;;6.40;99.90;;;;;;5050498;28;20082;-68
2022/04/04 12:37:56;;;;;;;9.88;8.88;;;6.40;99.90;;;;;;5051238;28;20024;-66
2022/04/04 12:40:25;;;;;;;10.68;8.55;;;6.40;99.90;;;;;;5049511;28;20025;-68
2022/04/04 12:42:54;;;;;;;10.35;9.25;;;6.40;99.90;;;;;;5041530;28;20358;-67
2022/04/04 12:45:20;;;;;;;9.85;8.85;;;6.40;99.90;;;;;;5041399;28;20559;-68
2022/04/04 12:47:52;;;;;;;10.02;8.95;;;6.40;99.90;;;;;;5042613;28;20043;-68
2022/04/04 12:50:21;;;;;;;10.30;8.80;;;6.40;99.90;;;;;;5042157;28;20032;-67
2022/04/04 12:52:57;;;;;;;10.65;9.55;;;6.30;99.90;;;;;;5050833;28;20028;-67
2022/04/04 12:55:22;;;;;;;11.05;8.90;;;6.40;99.90;;;;;;5048229;28;20023;-68
2022/04/04 12:57:48;;;;;;;10.50;8.95;;;6.30;99.90;;;;;;5047326;28;20024;-67